地図

経路データ

SID SEASON NUMBER BASIN SUBBASIN NAME ISO_TIME NATURE LAT LON WMO_WIND WMO_PRES WMO_AGENCY TRACK_TYPE DIST2LAND LANDFALL IFLAG USA_AGENCY USA_ATCF_ID USA_LAT USA_LON USA_RECORD USA_STATUS USA_WIND USA_PRES USA_SSHS USA_R34_NE USA_R34_SE USA_R34_SW USA_R34_NW USA_R50_NE USA_R50_SE USA_R50_SW USA_R50_NW USA_R64_NE USA_R64_SE USA_R64_SW USA_R64_NW USA_POCI USA_ROCI USA_RMW USA_EYE TOKYO_LAT TOKYO_LON TOKYO_GRADE TOKYO_WIND TOKYO_PRES TOKYO_R50_DIR TOKYO_R50_LONG TOKYO_R50_SHORT TOKYO_R30_DIR TOKYO_R30_LONG TOKYO_R30_SHORT TOKYO_LAND CMA_LAT CMA_LON CMA_CAT CMA_WIND CMA_PRES HKO_LAT HKO_LON HKO_CAT HKO_WIND HKO_PRES NEWDELHI_LAT NEWDELHI_LON NEWDELHI_GRADE NEWDELHI_WIND NEWDELHI_PRES NEWDELHI_CI NEWDELHI_DP NEWDELHI_POCI REUNION_LAT REUNION_LON REUNION_TYPE REUNION_WIND REUNION_PRES REUNION_TNUM REUNION_CI REUNION_RMW REUNION_R34_NE REUNION_R34_SE REUNION_R34_SW REUNION_R34_NW REUNION_R50_NE REUNION_R50_SE REUNION_R50_SW REUNION_R50_NW REUNION_R64_NE REUNION_R64_SE REUNION_R64_SW REUNION_R64_NW BOM_LAT BOM_LON BOM_TYPE BOM_WIND BOM_PRES BOM_TNUM BOM_CI BOM_RMW BOM_R34_NE BOM_R34_SE BOM_R34_SW BOM_R34_NW BOM_R50_NE BOM_R50_SE BOM_R50_SW BOM_R50_NW BOM_R64_NE BOM_R64_SE BOM_R64_SW BOM_R64_NW BOM_ROCI BOM_POCI BOM_EYE BOM_POS_METHOD BOM_PRES_METHOD NADI_LAT NADI_LON NADI_CAT NADI_WIND NADI_PRES WELLINGTON_LAT WELLINGTON_LON WELLINGTON_WIND WELLINGTON_PRES DS824_LAT DS824_LON DS824_STAGE DS824_WIND DS824_PRES TD9636_LAT TD9636_LON TD9636_STAGE TD9636_WIND TD9636_PRES TD9635_LAT TD9635_LON TD9635_WIND TD9635_PRES TD9635_ROCI NEUMANN_LAT NEUMANN_LON NEUMANN_CLASS NEUMANN_WIND NEUMANN_PRES MLC_LAT MLC_LON MLC_CLASS MLC_WIND MLC_PRES USA_GUST BOM_GUST BOM_GUST_PER REUNION_GUST REUNION_GUST_PER USA_SEAHGT USA_SEARAD_NE USA_SEARAD_SE USA_SEARAD_SW USA_SEARAD_NW STORM_SPEED STORM_DIR
1988242N12215 1988 65 EP CP ULEKI 1988-08-28 18:00:00 TS 12.2000 215.000 30 hurdat_epa main 1328 1286 O_________O___ hurdat_epa CP011988 12.2000 -145.000 TD 30 -1 12.2000 -145.000 1 30 10 269
1988242N12215 1988 65 EP CP ULEKI 1988-08-28 21:00:00 TS 12.1910 214.500 main 1286 1246 P_________P___ CP011988 12.1902 -145.500 TD 30 -1 12.1942 -145.500 1 30 10 270
1988242N12215 1988 65 EP CP ULEKI 1988-08-29 00:00:00 TS 12.2000 214.000 30 hurdat_epa main 1246 1206 O_________O___ hurdat_epa CP011988 12.2000 -146.000 TD 30 -1 12.2000 -146.000 1 30 10 273
1988242N12215 1988 65 EP CP ULEKI 1988-08-29 03:00:00 TS 12.2393 213.500 main 1206 1159 P_________P___ CP011988 12.2424 -146.500 TD 30 -1 12.2268 -146.500 1 30 10 276
1988242N12215 1988 65 EP CP ULEKI 1988-08-29 06:00:00 TS 12.2945 213.000 30 hurdat_epa main 1159 1121 O_________P___ hurdat_epa CP011988 12.3000 -147.000 TD 30 -1 12.2724 -147.000 1 30 10 276
1988242N12215 1988 65 EP CP ULEKI 1988-08-29 09:00:00 TS 12.3463 212.500 main 1121 1075 P_________P___ CP011988 12.3499 -147.500 TD 30 -1 12.3319 -147.500 1 30 10 276
1988242N12215 1988 65 EP CP ULEKI 1988-08-29 12:00:00 TS 12.4000 212.000 30 hurdat_epa main 1075 1038 O_________O___ hurdat_epa CP011988 12.4000 -148.000 TD 30 -1 12.4000 -148.000 1 30 10 276
1988242N12215 1988 65 EP CP ULEKI 1988-08-29 15:00:00 TS 12.4466 211.500 main 1038 995 P_________P___ CP011988 12.4424 -148.500 TD 32 -1 12.4635 -148.500 1 32 10 276
1988242N12215 1988 65 EP CP ULEKI 1988-08-29 18:00:00 TS 12.5069 211.000 35 hurdat_epa main 995 952 O_________P___ hurdat_epa CP011988 12.5000 -149.000 TS 35 0 12.5346 -149.000 1 35 10 279
1988242N12215 1988 65 EP CP ULEKI 1988-08-29 21:00:00 TS 12.5966 210.500 main 952 911 P_________P___ CP011988 12.5924 -149.500 TS 37 0 12.6135 -149.500 1 37 10 281
1988242N12215 1988 65 EP CP ULEKI 1988-08-30 00:00:00 TS 12.7000 210.000 40 hurdat_epa main 911 871 O_________O___ hurdat_epa CP011988 12.7000 -150.000 TS 40 0 12.7000 -150.000 2 40 10 282
1988242N12215 1988 65 EP CP ULEKI 1988-08-30 03:00:00 TS 12.7976 209.503 main 871 834 P_________P___ CP011988 12.7999 -150.500 TS 45 0 12.7882 -150.484 2 42 10 281
1988242N12215 1988 65 EP CP ULEKI 1988-08-30 06:00:00 TS 12.8969 209.006 50 hurdat_epa main 834 803 O_________P___ hurdat_epa CP011988 12.9000 -151.000 TS 50 0 12.8843 -150.970 2 45 10 282
1988242N12215 1988 65 EP CP ULEKI 1988-08-30 09:00:00 TS 12.9974 208.524 main 798 760 P_________P___ CP011988 12.9998 -151.478 TS 50 0 12.9882 -151.472 2 47 10 282
1988242N12215 1988 65 EP CP ULEKI 1988-08-30 12:00:00 TS 13.1000 208.000 50 hurdat_epa main 760 718 O_________O___ hurdat_epa CP011988 13.1000 -152.000 TS 50 0 13.1000 -152.000 2 50 11 280
1988242N12215 1988 65 EP CP ULEKI 1988-08-30 15:00:00 TS 13.1985 207.365 main 718 677 P_________P___ CP011988 13.1926 -152.643 TS 52 0 13.2222 -152.604 2 53 13 280
1988242N12215 1988 65 EP CP ULEKI 1988-08-30 18:00:00 TS 13.3101 206.714 55 hurdat_epa main 677 648 O_________P___ hurdat_epa CP011988 13.3000 -153.300 TS 55 0 13.3506 -153.230 2 57 12 282
1988242N12215 1988 65 EP CP ULEKI 1988-08-30 21:00:00 TS 13.4556 206.122 main 634 609 P_________P___ CP011988 13.4499 -153.887 TS 60 0 13.4785 -153.841 2 61 11 285
1988242N12215 1988 65 EP CP ULEKI 1988-08-31 00:00:00 TS 13.6000 205.600 65 hurdat_epa main 609 589 O_________O___ hurdat_epa CP011988 13.6000 -154.400 HU 65 1 13.6000 -154.400 3 65 10 285
1988242N12215 1988 65 EP CP ULEKI 1988-08-31 03:00:00 TS 13.7072 205.169 main 589 573 P_________P___ CP011988 13.7073 -154.823 HU 67 1 13.7065 -154.866 3 67 8 284
1988242N12215 1988 65 EP CP ULEKI 1988-08-31 06:00:00 TS 13.8013 204.785 70 hurdat_epa main 573 559 O_________P___ hurdat_epa CP011988 13.8000 -155.200 HU 70 1 13.8067 -155.275 3 70 8 284
1988242N12215 1988 65 EP CP ULEKI 1988-08-31 09:00:00 TS 13.9007 204.385 main 559 548 P_________P___ CP011988 13.9000 -155.608 HU 72 1 13.9035 -155.647 3 72 8 285
1988242N12215 1988 65 EP CP ULEKI 1988-08-31 12:00:00 TS 14.0000 204.000 75 hurdat_epa main 549 539 O_________O___ hurdat_epa CP011988 14.0000 -156.000 HU 75 1 14.0000 -156.000 4 75 7 285
1988242N12215 1988 65 EP CP ULEKI 1988-08-31 15:00:00 TS 14.0999 203.641 main 542 534 P_________P___ CP011988 14.0999 -156.358 HU 87 2 14.0997 -156.364 4 81 7 286
1988242N12215 1988 65 EP CP ULEKI 1988-08-31 18:00:00 TS 14.1999 203.297 100 hurdat_epa main 536 530 O_________P___ hurdat_epa CP011988 14.2000 -156.700 HU 100 3 14.1997 -156.715 4 87 7 286
1988242N12215 1988 65 EP CP ULEKI 1988-08-31 21:00:00 TS 14.2999 202.942 main 535 528 P_________P___ CP011988 14.3000 -157.058 HU 100 3 14.2998 -157.058 4 93 7 286
1988242N12215 1988 65 EP CP ULEKI 1988-09-01 00:00:00 TS 14.4000 202.600 100 hurdat_epa main 535 532 O_________O___ hurdat_epa CP011988 14.4000 -157.400 HU 100 3 14.4000 -157.400 4 100 7 287
1988242N12215 1988 65 EP CP ULEKI 1988-09-01 03:00:00 TS 14.4983 202.293 main 536 535 P_________P___ CP011988 14.4999 -157.693 HU 100 3 14.4919 -157.766 4 100 6 288
1988242N12215 1988 65 EP CP ULEKI 1988-09-01 06:00:00 TS 14.5970 201.974 100 hurdat_epa main 539 539 O_________P___ hurdat_epa CP011988 14.6000 -158.000 HU 100 3 14.5850 -158.130 4 100 7 286
1988242N12215 1988 65 EP CP ULEKI 1988-09-01 09:00:00 TS 14.6912 201.584 main 550 550 P_________P___ CP011988 14.6926 -158.400 HU 100 3 14.6857 -158.479 4 100 8 285
1988242N12215 1988 65 EP CP ULEKI 1988-09-01 12:00:00 TS 14.8000 201.200 100 hurdat_epa main 565 562 O_________O___ hurdat_epa CP011988 14.8000 -158.800 HU 100 3 14.8000 -158.800 4 100 7 290
1988242N12215 1988 65 EP CP ULEKI 1988-09-01 15:00:00 TS 14.9419 200.877 main 575 566 P_________P___ CP011988 14.9424 -159.130 HU 100 3 14.9395 -159.095 4 102 6 298
1988242N12215 1988 65 EP CP ULEKI 1988-09-01 18:00:00 TS 15.0985 200.608 100 hurdat_epa main 579 578 O_________P___ hurdat_epa CP011988 15.1000 -159.400 HU 100 3 15.0923 -159.360 4 105 6 303
1988242N12215 1988 65 EP CP ULEKI 1988-09-01 21:00:00 TS 15.2497 200.395 main 585 577 P_________P___ CP011988 15.2499 -159.608 HU 105 3 15.2490 -159.595 4 107 5 307
1988242N12215 1988 65 EP CP ULEKI 1988-09-02 00:00:00 TS 15.4000 200.200 110 hurdat_epa main 585 585 O_________O___ hurdat_epa CP011988 15.4000 -159.800 HU 110 3 15.4000 -159.800 4 110 5 305
1988242N12215 1988 65 EP CP ULEKI 1988-09-02 03:00:00 TS 15.5517 199.941 main 593 593 P_________P___ CP011988 15.5576 -160.072 HU 105 3 15.5280 -160.003 4 107 5 302
1988242N12215 1988 65 EP CP ULEKI 1988-09-02 06:00:00 TS 15.6900 199.725 100 hurdat_epa main 602 595 O_________P___ hurdat_epa CP011988 15.7000 -160.300 HU 100 3 15.6499 -160.175 4 105 4 309
1988242N12215 1988 65 EP CP ULEKI 1988-09-02 09:00:00 TS 15.7883 199.634 main 603 596 P_________P___ CP011988 15.7924 -160.380 HU 100 3 15.7718 -160.309 4 102 2 331
1988242N12215 1988 65 EP CP ULEKI 1988-09-02 12:00:00 TS 15.9000 199.600 100 hurdat_epa main 596 589 O_________O___ hurdat_epa CP011988 15.9000 -160.400 HU 100 3 15.9000 -160.400 4 100 3 343
1988242N12215 1988 65 EP CP ULEKI 1988-09-02 15:00:00 TS 16.0910 199.538 main 591 579 P_________P___ CP011988 16.1000 -160.465 HU 102 3 16.0549 -160.451 4 101 4 347
1988242N12215 1988 65 EP CP ULEKI 1988-09-02 18:00:00 TS 16.2830 199.508 105 hurdat_epa main 579 573 O_________P___ hurdat_epa CP011988 16.3000 -160.500 HU 105 3 16.2149 -160.460 4 102 3 4
1988242N12215 1988 65 EP CP ULEKI 1988-09-02 21:00:00 TS 16.4115 199.540 main 573 558 P_________P___ CP011988 16.4225 -160.465 HU 105 3 16.3675 -160.439 4 103 2 22
1988242N12215 1988 65 EP CP ULEKI 1988-09-03 00:00:00 TS 16.5000 199.600 105 hurdat_epa main 558 552 O_________O___ hurdat_epa CP011988 16.5000 -160.400 HU 105 3 16.5000 -160.400 4 105 2 35
1988242N12215 1988 65 EP CP ULEKI 1988-09-03 03:00:00 TS 16.5601 199.648 main 552 543 P_________P___ CP011988 16.5500 -160.350 HU 105 3 16.6006 -160.360 4 103 2 41
1988242N12215 1988 65 EP CP ULEKI 1988-09-03 06:00:00 TS 16.6160 199.699 105 hurdat_epa main 543 537 O_________P___ hurdat_epa CP011988 16.6000 -160.300 HU 105 3 16.6800 -160.308 4 102 2 33
1988242N12215 1988 65 EP CP ULEKI 1988-09-03 09:00:00 TS 16.7089 199.750 main 537 522 P_________P___ CP011988 16.7000 -160.250 HU 102 3 16.7444 -160.251 4 101 2 28
1988242N12215 1988 65 EP CP ULEKI 1988-09-03 12:00:00 TS 16.8000 199.800 100 hurdat_epa main 522 507 O_________O___ hurdat_epa CP011988 16.8000 -160.200 HU 100 3 16.8000 -160.200 4 100 2 35
1988242N12215 1988 65 EP CP ULEKI 1988-09-03 15:00:00 TS 16.8534 199.861 main 507 507 P_________P___ CP011988 16.8575 -160.143 HU 97 3 16.8368 -160.123 4 96 1 49
1988242N12215 1988 65 EP CP ULEKI 1988-09-03 18:00:00 TS 16.8940 199.908 95 hurdat_epa main 507 507 O_________P___ hurdat_epa CP011988 16.9000 -160.100 HU 95 2 16.8698 -160.060 4 92 1 42
1988242N12215 1988 65 EP CP ULEKI 1988-09-03 21:00:00 TS 16.9256 199.936 main 507 502 P_________P___ CP011988 16.9275 -160.070 HU 90 2 16.9179 -160.042 4 88 1 0
1988242N12215 1988 65 EP CP ULEKI 1988-09-04 00:00:00 TS 17.0000 199.900 85 hurdat_epa main 502 497 O_________O___ hurdat_epa CP011988 17.0000 -160.100 HU 85 2 17.0000 -160.100 4 85 3 332
1988242N12215 1988 65 EP CP ULEKI 1988-09-04 03:00:00 TS 17.1798 199.794 main 501 498 P_________P___ CP011988 17.1849 -160.198 HU 82 1 17.1592 -160.242 4 81 5 323
1988242N12215 1988 65 EP CP ULEKI 1988-09-04 06:00:00 TS 17.3899 199.587 80 hurdat_epa main 498 493 O_________P___ hurdat_epa CP011988 17.4000 -160.400 HU 80 1 17.3497 -160.465 4 77 6 309
1988242N12215 1988 65 EP CP ULEKI 1988-09-04 09:00:00 TS 17.5661 199.285 main 495 494 P_________P___ CP011988 17.5725 -160.705 HU 75 1 17.5404 -160.755 4 73 7 295
1988242N12215 1988 65 EP CP ULEKI 1988-09-04 12:00:00 TS 17.7000 198.900 70 hurdat_epa main 499 498 O_________O___ hurdat_epa CP011988 17.7000 -161.100 HU 70 1 17.7000 -161.100 4 70 8 285
1988242N12215 1988 65 EP CP ULEKI 1988-09-04 15:00:00 TS 17.7660 198.474 main 502 502 P_________P___ CP011988 17.7650 -161.543 HU 70 1 17.7696 -161.459 4 70 8 277
1988242N12215 1988 65 EP CP ULEKI 1988-09-04 18:00:00 TS 17.8015 198.026 70 hurdat_epa main 523 523 O_________P___ hurdat_epa CP011988 17.8000 -162.000 HU 70 1 17.8073 -161.869 4 70 8 275
1988242N12215 1988 65 EP CP ULEKI 1988-09-04 21:00:00 TS 17.8421 197.616 main 542 538 P_________P___ CP011988 17.8423 -162.400 HU 70 1 17.8413 -162.319 4 70 8 277
1988242N12215 1988 65 EP CP ULEKI 1988-09-05 00:00:00 TS 17.9000 197.200 70 hurdat_epa main 555 555 O_________O___ hurdat_epa CP011988 17.9000 -162.800 HU 70 1 17.9000 -162.800 4 70 8 280
1988242N12215 1988 65 EP CP ULEKI 1988-09-05 03:00:00 TS 17.9828 196.763 main 571 571 P_________P___ CP011988 17.9773 -163.220 HU 70 1 18.0051 -163.304 4 70 9 283
1988242N12215 1988 65 EP CP ULEKI 1988-09-05 06:00:00 TS 18.1080 196.273 70 hurdat_epa main 596 596 O_________P___ hurdat_epa CP011988 18.1000 -163.700 HU 70 1 18.1401 -163.835 4 70 11 287
1988242N12215 1988 65 EP CP ULEKI 1988-09-05 09:00:00 TS 18.2892 195.685 main 625 625 P_________P___ CP011988 18.2852 -164.300 HU 70 1 18.3051 -164.373 4 70 12 289
1988242N12215 1988 65 EP CP ULEKI 1988-09-05 12:00:00 TS 18.5000 195.100 70 hurdat_epa main 660 660 O_________O___ hurdat_epa CP011988 18.5000 -164.900 HU 70 1 18.5000 -164.900 4 70 11 292
1988242N12215 1988 65 EP CP ULEKI 1988-09-05 15:00:00 TS 18.6843 194.640 main 690 690 P_________P___ CP011988 18.6847 -165.365 HU 70 1 18.6831 -165.338 4 70 9 295
1988242N12215 1988 65 EP CP ULEKI 1988-09-05 18:00:00 TS 18.9000 194.206 70 hurdat_epa main 714 714 O_________P___ hurdat_epa CP011988 18.9000 -165.800 HU 70 1 18.9000 -165.771 4 70 10 299
1988242N12215 1988 65 EP CP ULEKI 1988-09-05 21:00:00 TS 19.1570 193.756 main 735 735 P_________P___ CP011988 19.1544 -166.241 HU 70 1 19.1671 -166.242 4 70 11 302
1988242N12215 1988 65 EP CP ULEKI 1988-09-06 00:00:00 TS 19.5000 193.200 70 hurdat_epa main 779 779 O_________O___ hurdat_epa CP011988 19.5000 -166.800 HU 70 1 19.5000 -166.800 4 70 15 303
1988242N12215 1988 65 EP CP ULEKI 1988-09-06 03:00:00 TS 19.9688 192.422 main 839 839 P_________P___ CP011988 19.9780 -167.612 HU 67 1 19.9324 -167.541 4 68 18 303
1988242N12215 1988 65 EP CP ULEKI 1988-09-06 06:00:00 TS 20.4845 191.567 65 hurdat_epa main 906 906 O_________P___ hurdat_epa CP011988 20.5000 -168.500 HU 65 1 20.4226 -168.367 4 67 19 303
1988242N12215 1988 65 EP CP ULEKI 1988-09-06 09:00:00 TS 20.9632 190.762 main 978 978 P_________P___ CP011988 20.9724 -169.303 HU 65 1 20.9262 -169.210 4 66 17 303
1988242N12215 1988 65 EP CP ULEKI 1988-09-06 12:00:00 TS 21.4000 190.040 65 hurdat_epa main 1055 1055 O_________O___ hurdat_epa CP011988 21.4000 -170.000 HU 65 1 21.4000 -170.000 4 65 14 304
1988242N12215 1988 65 EP CP ULEKI 1988-09-06 15:00:00 TS 21.7689 189.485 main 1103 1103 P_________P___ CP011988 21.7642 -170.516 HU 65 1 21.7873 -170.614 4 65 12 308
1988242N12215 1988 65 EP CP ULEKI 1988-09-06 18:00:00 TS 22.1412 189.016 65 hurdat_epa main 1153 1153 O_O_______P___ hurdat_epa CP011988 22.1000 -171.000 HU 65 1 22.8000 190.000 3 48 985 22.1413 -171.169 4 65 13 305
1988242N12215 1988 65 EP CP ULEKI 1988-09-06 21:00:00 TS 22.4916 188.378 main 1214 1214 P_P_______P___ CP011988 22.4499 -171.620 HU 65 1 22.8593 -171.427 3 58 980 22.4748 -171.714 4 65 14 299
1988242N12215 1988 65 EP CP ULEKI 1988-09-07 00:00:00 TS 22.8261 187.674 65 hurdat_epa main 1287 1287 O_O_______O___ hurdat_epa CP011988 22.8000 -172.300 HU 65 1 23.0000 187.500 4 68 975 22.8000 -172.300 4 65 14 299
1988242N12215 1988 65 EP CP ULEKI 1988-09-07 03:00:00 TS 23.1780 187.011 main 1360 1360 P_P_______P___ CP011988 23.1571 -172.978 HU 65 1 23.2827 -173.018 4 68 972 23.1568 -173.007 4 71 14 299
1988242N12215 1988 65 EP CP ULEKI 1988-09-07 06:00:00 TS 23.5171 186.340 65 hurdat_epa main 1434 1434 O_O_______P___ hurdat_epa CP011988 23.5000 -173.700 HU 65 1 23.6000 186.600 4 68 970 23.5028 -173.762 4 77 15 296
1988242N12215 1988 65 EP CP ULEKI 1988-09-07 09:00:00 TS 23.8264 185.544 main 1517 1517 P_P_______P___ CP011988 23.8301 -174.507 HU 77 1 23.8156 -174.170 4 68 970 23.8223 -174.535 4 83 16 291
1988242N12215 1988 65 EP CP ULEKI 1988-09-07 12:00:00 TS 24.0833 184.750 90 hurdat_epa main 1591 1601 O_O_______O___ hurdat_epa CP011988 24.1000 -175.300 HU 90 2 24.0000 185.000 4 68 970 24.1000 -175.300 4 90 14 288
1988242N12215 1988 65 EP CP ULEKI 1988-09-07 15:00:00 TS 24.2588 184.088 main 1664 1664 P_P_______P___ CP011988 24.2642 -175.958 HU 90 2 24.1839 -175.636 4 72 965 24.3122 -176.000 4 90 12 285
1988242N12215 1988 65 EP CP ULEKI 1988-09-07 18:00:00 TS 24.4141 183.435 90 hurdat_epa main 1735 1735 O_O_______P___ hurdat_epa CP011988 24.4000 -176.600 HU 90 2 24.4000 183.700 4 77 960 24.4849 -176.688 4 90 13 286
1988242N12215 1988 65 EP CP ULEKI 1988-09-07 21:00:00 TS 24.6318 182.701 main 1808 1808 P_P_______P___ CP011988 24.6071 -177.320 HU 90 2 24.7220 -177.132 4 82 955 24.6402 -177.381 4 90 15 287
1988242N12215 1988 65 EP CP ULEKI 1988-09-08 00:00:00 TS 24.8348 181.900 90 hurdat_epa main 1891 1891 O_O_______O___ hurdat_epa CP011988 24.8000 -178.100 HU 90 2 25.0000 181.900 5 87 950 24.8000 -178.100 4 90 16 281
1988242N12215 1988 65 EP CP ULEKI 1988-09-08 03:00:00 TS 24.9390 181.000 main 1982 1982 P_P_______P___ CP011988 24.8850 -178.951 HU 90 2 25.0667 -179.284 5 87 947 24.9809 -178.896 4 90 16 278
1988242N12215 1988 65 EP CP ULEKI 1988-09-08 06:00:00 TS 25.0628 180.124 90 hurdat_epa main 2074 2074 OOO_______P___ hurdat_epa CP011988 25.0000 -179.800 HU 90 2 25.3000 180.200 7 85 945 9 75 75 9 175 175 0 25.1000 179.700 5 87 945 25.1706 -179.716 4 90 15 284
1988242N12215 1988 65 WP MM ULEKI 1988-09-08 09:00:00 TS 25.2978 179.426 main 2147 2147 PPP_______P___ CP011988 25.2770 179.428 HU 90 2 25.3429 179.609 7 85 945 9 75 75 9 175 175 25.2606 179.282 5 87 945 25.3748 179.472 4 90 13 293
1988242N12215 1988 65 WP MM ULEKI 1988-09-08 12:00:00 TS 25.5667 178.800 85 945 tokyo main 2210 2210 OOOO______O___ hurdat_epa CP011988 25.6000 178.700 HU 90 2 25.5000 179.000 5 85 945 9 75 75 9 175 175 0 25.5000 179.000 5 87 945 25.5000 179.000 T 80 955 25.6000 178.700 4 90 13 294
1988242N12215 1988 65 WP MM ULEKI 1988-09-08 15:00:00 TS 25.8334 178.123 main 2282 2282 PPPP______P___ CP011988 25.8498 177.977 HU 90 2 25.8348 178.358 5 85 945 9 75 75 9 175 175 25.7927 178.395 5 87 945 25.7510 178.268 T 80 955 25.8645 177.979 4 90 13 294
1988242N12215 1988 65 WP MM ULEKI 1988-09-08 18:00:00 TS 26.1109 177.452 85 945 tokyo main 2345 2345 OOOO______P___ hurdat_epa CP011988 26.1000 177.300 HU 90 2 26.2000 177.700 5 85 945 9 75 75 9 175 175 0 26.1000 177.700 5 87 945 26.0000 177.600 T 80 955 26.1488 177.303 4 90 13 295
1988242N12215 1988 65 WP MM ULEKI 1988-09-08 21:00:00 TS 26.3793 176.820 main 2418 2418 PPPP______P___ CP011988 26.3998 176.663 HU 90 2 26.4076 177.019 5 82 945 9 75 75 9 175 175 26.3651 177.020 5 87 947 26.2494 177.035 T 80 955 26.4337 176.676 4 90 12 296
1988242N12215 1988 65 WP MM ULEKI 1988-09-09 00:00:00 TS 26.6429 176.243 80 945 tokyo main 2480 2480 OOOO______O___ hurdat_epa CP011988 26.7000 176.100 HU 90 2 26.6000 176.400 5 80 945 9 75 75 9 175 175 0 26.6000 176.400 5 87 950 26.5000 176.500 T 80 955 26.7000 176.100 4 90 11 299
1988242N12215 1988 65 WP MM ULEKI 1988-09-09 03:00:00 TS 26.9063 175.740 main 2533 2533 PPPP______P___ CP011988 26.9721 175.627 HU 90 2 26.9070 175.927 5 80 947 9 75 75 9 175 175 26.8070 175.927 5 87 950 26.7651 175.885 T 80 955 26.9489 175.558 4 90 10 300
1988242N12215 1988 65 WP MM ULEKI 1988-09-09 06:00:00 TS 27.1391 175.281 80 950 tokyo main 2575 2575 OOOO______P___ hurdat_epa CP011988 27.2000 175.200 HU 90 2 27.2000 175.500 5 80 950 9 75 75 9 175 175 0 27.0000 175.500 5 87 950 27.0000 175.300 T 80 955 27.1737 175.067 4 90 9 297
1988242N12215 1988 65 WP MM ULEKI 1988-09-09 09:00:00 TS 27.3284 174.807 main 2627 2627 PPPP______P___ CP011988 27.3799 174.742 HU 90 2 27.3949 175.007 5 80 950 9 75 75 9 175 175 27.2226 174.985 5 87 950 27.1797 174.812 T 82 952 27.3617 174.618 4 90 9 291
1988242N12215 1988 65 WP MM ULEKI 1988-09-09 12:00:00 TS 27.4571 174.357 80 950 tokyo main 2669 2669 OOOO______O___ hurdat_epa CP011988 27.5000 174.300 HU 90 2 27.5000 174.500 5 80 950 9 75 75 9 175 175 0 27.4000 174.500 5 87 950 27.3000 174.400 ST 85 950 27.5000 174.200 4 90 8 284
1988242N12215 1988 65 WP MM ULEKI 1988-09-09 15:00:00 TS 27.5176 173.941 main 2718 2718 PPPP______P___ CP011988 27.5724 173.885 HU 90 2 27.5152 173.962 5 77 950 9 75 75 9 175 175 27.4720 174.150 5 87 950 27.3648 174.035 ST 85 950 27.5544 173.787 4 90 7 276
1988242N12215 1988 65 WP MM ULEKI 1988-09-09 18:00:00 TS 27.5378 173.558 75 950 tokyo main 2747 2747 OOOO______P___ hurdat_epa CP011988 27.6000 173.500 HU 90 2 27.5000 173.500 5 75 950 9 75 75 9 175 175 0 27.5000 173.800 5 87 950 27.4000 173.700 ST 85 950 27.5643 173.403 4 90 7 273
1988242N12215 1988 65 WP MM ULEKI 1988-09-09 21:00:00 TS 27.5541 173.189 main 2788 2788 PPPP______P___ CP011988 27.5924 173.135 HU 90 2 27.5421 173.228 5 75 950 9 75 75 9 175 175 27.5503 173.293 5 82 952 27.4424 173.357 ST 82 952 27.5670 173.043 4 90 6 274
1988242N12215 1988 65 WP MM ULEKI 1988-09-10 00:00:00 TS 27.5857 172.843 75 950 tokyo main 2827 2824 OOOO______O___ hurdat_epa CP011988 27.6000 172.800 HU 90 2 27.6000 173.000 5 75 950 9 75 75 9 175 175 0 27.6000 172.800 4 77 955 27.5000 173.000 T 80 955 27.6000 172.700 4 90 6 279
1988242N12215 1988 65 WP MM ULEKI 1988-09-10 03:00:00 TS 27.6473 172.514 main 2824 2789 PPPP______P___ CP011988 27.6698 172.507 HU 90 2 27.6351 172.657 5 75 950 9 75 75 9 175 175 27.6197 172.462 4 77 957 27.5775 172.600 T 80 955 27.6894 172.356 4 90 6 287
1988242N12215 1988 65 WP MM ULEKI 1988-09-10 06:00:00 TS 27.7596 172.190 75 950 tokyo main 2789 2762 OOOO______P___ hurdat_epa CP011988 27.8000 172.200 HU 90 2 27.7000 172.300 5 75 950 9 75 75 9 175 175 0 27.7000 172.200 4 77 960 27.7000 172.200 T 80 955 27.8171 172.027 4 90 7 295
1988242N12215 1988 65 WP MM ULEKI 1988-09-10 09:00:00 TS 27.9295 171.841 main 2756 2720 PPPP______P___ CP011988 27.9701 171.807 HU 90 2 27.8124 171.985 5 72 950 9 62 62 9 162 162 27.9199 171.950 4 77 960 27.8775 171.820 T 77 957 27.9863 171.709 4 90 7 303
1988242N12215 1988 65 WP MM ULEKI 1988-09-10 12:00:00 TS 28.1571 171.500 70 950 tokyo main 2711 2676 OOOO______O___ hurdat_epa CP011988 28.2000 171.400 HU 90 2 28.0000 171.700 5 70 950 9 50 50 9 150 150 0 28.2000 171.700 4 77 960 28.1000 171.500 T 75 960 28.2000 171.400 4 90 8 310
1988242N12215 1988 65 WP MM ULEKI 1988-09-10 15:00:00 TS 28.4261 171.182 main 2676 2632 PPPP______P___ CP011988 28.4850 171.020 HU 90 2 28.2774 171.442 5 70 952 9 50 50 9 150 150 28.4425 171.400 4 72 960 28.3348 171.285 T 77 957 28.4730 171.085 4 90 8 317
1988242N12215 1988 65 WP MM ULEKI 1988-09-10 18:00:00 TS 28.7264 170.897 70 955 tokyo main 2632 2593 OOOO______P___ hurdat_epa CP011988 28.8000 170.700 HU 90 2 28.6000 171.200 5 70 955 9 50 50 9 150 150 0 28.7000 171.100 4 68 960 28.6000 171.100 T 80 955 28.7848 170.778 4 90 8 323
1988242N12215 1988 65 WP MM ULEKI 1988-09-10 21:00:00 TS 29.0344 170.658 main 2593 2549 PPPP______P___ CP011988 29.1148 170.492 HU 90 2 28.9075 170.950 5 72 957 9 50 50 9 162 162 28.9999 170.842 4 68 962 28.8850 170.857 T 85 950 29.1043 170.482 4 90 7 326
1988242N12215 1988 65 WP MM ULEKI 1988-09-11 00:00:00 TS 29.3286 170.429 75 960 tokyo main 2549 2511 OOOO______O___ hurdat_epa CP011988 29.4000 170.300 HU 90 2 29.2000 170.700 5 75 960 9 50 50 9 175 175 0 29.3000 170.600 4 68 965 29.2000 170.600 ST 90 945 29.4000 170.200 4 90 7 321
1988242N12215 1988 65 WP MM ULEKI 1988-09-11 03:00:00 TS 29.5802 170.151 main 2511 2475 PPPP______P___ CP011988 29.6151 170.000 HU 85 2 29.4575 170.450 5 75 962 9 50 50 9 175 175 29.5650 170.342 4 68 967 29.5650 170.343 ST 90 945 29.6286 169.919 4 86 7 315
1988242N12215 1988 65 WP MM ULEKI 1988-09-11 06:00:00 TS 29.8043 169.879 75 965 tokyo main 2475 2446 OOOO______P___ hurdat_epa CP011988 29.8000 169.700 HU 80 1 29.7000 170.200 5 75 965 9 50 50 9 175 175 0 29.8000 170.100 4 68 970 29.9000 170.100 ST 90 945 29.8299 169.654 4 82 6 315
1988242N12215 1988 65 WP MM ULEKI 1988-09-11 09:00:00 TS 30.0169 169.651 main 2446 2416 PPPP______P___ CP011988 29.9999 169.477 HU 77 1 29.9650 169.935 5 75 967 9 50 50 9 175 175 30.0149 169.892 4 68 970 30.1225 169.885 ST 82 950 30.0162 169.413 4 78 6 318
1988242N12215 1988 65 WP MM ULEKI 1988-09-11 12:00:00 TS 30.2143 169.457 75 970 tokyo main 2416 2387 OOOO______O___ hurdat_epa CP011988 30.2000 169.300 HU 75 1 30.2000 169.700 5 75 970 9 50 50 9 175 175 0 30.2000 169.700 4 68 970 30.3000 169.700 T 75 955 30.2000 169.200 4 75 5 322
1988242N12215 1988 65 WP MM ULEKI 1988-09-11 15:00:00 TS 30.4087 169.295 main 2387 2363 PPPP______P___ CP011988 30.3999 169.150 HU 75 1 30.3649 169.535 5 72 972 9 50 50 9 175 175 30.3650 169.492 4 68 970 30.5074 169.550 T 70 960 30.4240 169.037 4 73 5 324
1988242N12215 1988 65 WP MM ULEKI 1988-09-11 18:00:00 TS 30.5921 169.143 70 975 tokyo main 2358 2334 OOOO______P___ hurdat_epa CP011988 30.6000 169.000 HU 75 1 30.5000 169.400 5 70 975 9 50 50 9 175 175 0 30.5000 169.300 4 68 970 30.7000 169.400 T 65 965 30.6444 168.900 4 72 5 323
1988242N12215 1988 65 WP MM ULEKI 1988-09-11 21:00:00 TS 30.7707 168.977 main 2334 2314 PPPP______P___ CP011988 30.8150 168.815 HU 72 1 30.6574 169.265 5 67 977 9 40 40 9 162 162 30.5849 169.150 4 63 972 30.8650 169.215 T 62 967 30.8427 168.762 4 71 5 318
1988242N12215 1988 65 WP MM ULEKI 1988-09-12 00:00:00 TS 30.9286 168.786 65 980 tokyo main 2314 2284 OOOO______O___ hurdat_epa CP011988 31.0000 168.600 HU 70 1 30.8000 169.100 5 65 980 9 30 30 9 150 150 0 30.7000 169.000 3 58 975 31.0000 169.000 STS 60 970 31.0000 168.600 4 70 5 310
1988242N12215 1988 65 WP MM ULEKI 1988-09-12 03:00:00 TS 31.0624 168.564 main 2284 2258 PPPP______P___ CP011988 31.1300 168.357 HU 70 1 30.9074 168.887 5 62 982 9 25 25 9 150 150 30.9349 168.830 3 58 975 31.1074 168.772 STS 57 972 31.0971 168.387 4 68 5 300
1988242N12215 1988 65 WP MM ULEKI 1988-09-12 06:00:00 TS 31.1646 168.306 60 985 tokyo main 2258 2240 OOOO______P___ hurdat_epa CP011988 31.2000 168.100 HU 70 1 31.0000 168.600 4 60 985 9 20 20 9 150 150 0 31.2000 168.600 3 58 975 31.2000 168.500 STS 55 975 31.1524 168.145 4 67 5 291
1988242N12215 1988 65 WP MM ULEKI 1988-09-12 09:00:00 TS 31.2388 168.013 main 2240 2214 PPPP______P___ CP011988 31.2150 167.850 HU 67 1 31.0927 168.207 4 60 987 9 20 20 9 150 150 31.4374 168.288 3 53 980 31.3150 168.165 STS 52 977 31.1815 167.880 4 66 5 283
1988242N12215 1988 65 WP MM ULEKI 1988-09-12 12:00:00 TS 31.2857 167.700 60 990 tokyo main 2214 2197 OOOO______O___ hurdat_epa CP011988 31.2000 167.600 HU 65 1 31.2000 167.800 4 60 990 9 20 20 9 150 150 0 31.6000 167.900 3 48 985 31.4000 167.800 STS 50 980 31.2000 167.600 4 65 5 279
1988242N12215 1988 65 WP MM ULEKI 1988-09-12 15:00:00 TS 31.3225 167.409 main 2197 2180 PPPP______P___ CP011988 31.1924 167.365 HU 65 1 31.4023 167.493 4 60 991 9 20 20 9 150 150 31.6751 167.458 3 48 985 31.3998 167.457 STS 50 980 31.2035 167.357 4 63 5 275
1988242N12215 1988 65 WP MM ULEKI 1988-09-12 18:00:00 TS 31.3266 167.099 60 992 tokyo main 2180 2163 OOOO______P___ hurdat_epa CP011988 31.2000 167.100 HU 65 1 31.5000 167.200 4 60 992 9 20 20 9 150 150 0 31.6000 167.000 3 48 985 31.4000 167.100 STS 50 980 31.2047 167.094 4 62 5 265
1988242N12215 1988 65 WP MM ULEKI 1988-09-12 21:00:00 TS 31.2761 166.771 main 2163 2150 PPPP______P___ CP011988 31.2273 166.787 HU 62 0 31.2796 166.894 4 57 994 9 20 20 9 150 150 31.3671 166.615 3 48 985 31.4753 166.710 STS 47 982 31.2287 166.784 4 61 6 258
1988242N12215 1988 65 WP MM ULEKI 1988-09-13 00:00:00 TS 31.2000 166.376 55 996 tokyo main 2150 2132 OOOO______O___ hurdat_epa CP011988 31.3000 166.400 TS 60 0 31.0000 166.500 4 55 996 9 20 20 9 150 150 0 31.0000 166.200 3 48 985 31.6000 166.300 TS 45 985 31.3000 166.400 2 60 8 253
1988242N12215 1988 65 WP MM ULEKI 1988-09-13 03:00:00 TS 31.0279 165.850 main 2136 2118 PPP_______P___ CP011988 31.4330 165.926 TS 57 0 30.7935 165.840 4 52 998 9 9 150 150 30.4520 165.708 3 43 987 TS 31.4328 165.926 2 57 10 254
1988242N12215 1988 65 WP MM ULEKI 1988-09-13 06:00:00 TS 30.9364 165.282 50 1000 tokyo main 2118 2084 OOO_______O___ hurdat_epa CP011988 31.6000 165.400 TS 55 0 30.9000 165.300 4 50 1000 0 9 150 150 0 30.1000 165.100 2 38 990 31.6000 165.400 2 55 7 282
1988242N12215 1988 65 WP MM ULEKI 1988-09-13 09:00:00 TS 31.1724 165.023 main 2075 1992 _PP___________ CP011988 TS -1 31.6166 165.362 4 47 1002 0 9 125 125 30.2839 164.346 2 33 992 2 12 350
1988242N12215 1988 65 WP MM ULEKI 1988-09-13 12:00:00 TS 32.1600 165.020 45 1004 tokyo main 1983 1890 _OO___________ 32.5000 165.400 3 45 1004 0 9 100 100 0 30.8000 163.500 1 29 995 20 354
1988242N12215 1988 65 WP MM ULEKI 1988-09-13 15:00:00 TS 33.1212 164.785 main 1890 1810 _P____________ 33.1212 164.785 3 1005 0 9 1 16 327
1988242N12215 1988 65 WP MM ULEKI 1988-09-13 18:00:00 TS 33.5000 164.000 1006 tokyo main 1810 1784 _O____________ 33.5000 164.000 2 1006 0 0 0 12 290
1988242N12215 1988 65 WP MM ULEKI 1988-09-13 21:00:00 TS 33.5372 163.430 main 1778 1757 _P____________ 33.5372 163.430 2 1007 0 0 8 270
1988242N12215 1988 65 WP MM ULEKI 1988-09-14 00:00:00 TS 33.5000 163.000 1008 tokyo main 1757 1723 _O____________ 33.5000 163.000 2 1008 0 0 0 6 286
1988242N12215 1988 65 WP MM ULEKI 1988-09-14 03:00:00 TS 33.7121 162.713 main 1723 1685 _P____________ 33.7121 162.713 2 1010 0 0 7 320
1988242N12215 1988 65 WP MM ULEKI 1988-09-14 06:00:00 TS 34.0000 162.500 1012 tokyo main 1685 1656 _O____________ 34.0000 162.500 2 1012 0 0 0 6 323
1988242N12215 1988 65 WP MM ULEKI 1988-09-14 09:00:00 TS 34.2125 162.250 main 1651 1613 _P____________ 34.2125 162.250 2 1013 0 0 6 320
1988242N12215 1988 65 WP MM ULEKI 1988-09-14 12:00:00 TS 34.5000 162.000 1014 tokyo main 1613 1566 _O____________ 34.5000 162.000 2 1014 0 0 0 9 331
1988242N12215 1988 65 WP MM ULEKI 1988-09-14 15:00:00 TS 34.9625 161.750 main 1557 1496 _P____________ 34.9625 161.750 2 1014 0 0 11 338
1988242N12215 1988 65 WP MM ULEKI 1988-09-14 18:00:00 TS 35.5000 161.500 1014 tokyo main 1496 1444 _O____________ 35.5000 161.500 2 1014 0 0 0 11 335
1988242N12215 1988 65 WP MM ULEKI 1988-09-14 21:00:00 TS 35.9626 161.176 main 1435 1380 _P____________ 35.9626 161.176 2 1014 0 0 11 338
1988242N12215 1988 65 WP MM ULEKI 1988-09-15 00:00:00 TS 36.5000 161.000 1014 tokyo main 1380 1324 _O____________ 36.5000 161.000 2 1014 0 0 0 13 357
1988242N12215 1988 65 WP MM ULEKI 1988-09-15 03:00:00 TS 37.2493 161.100 main 1324 1279 _P____________ 37.2493 161.100 2 1014 0 0 16 15
1988242N12215 1988 65 WP MM ULEKI 1988-09-15 06:00:00 TS 38.0000 161.500 1014 tokyo main 1279 1266 _O____________ 38.0000 161.500 2 1014 0 0 0 16 32
1988242N12215 1988 65 WP MM ULEKI 1988-09-15 09:00:00 TS 38.5748 162.137 main 1267 1267 _P____________ 38.5748 162.137 2 1014 0 0 15 50
1988242N12215 1988 65 WP MM ULEKI 1988-09-15 12:00:00 TS 39.0000 163.000 1014 tokyo main 1294 1293 _O____________ 39.0000 163.000 2 1014 0 0 0 15 62
1988242N12215 1988 65 WP MM ULEKI 1988-09-15 15:00:00 TS 39.2852 163.890 main 1331 1331 _P____________ 39.2852 163.890 2 1013 0 0 16 72
1988242N12215 1988 65 WP MM ULEKI 1988-09-15 18:00:00 TS 39.5000 165.000 1012 tokyo main 1384 1384 _O____________ 39.5000 165.000 2 1012 0 0 0 20 77
1988242N12215 1988 65 WP MM ULEKI 1988-09-15 21:00:00 TS 39.7520 166.462 main 1419 1419 _P____________ 39.7520 166.462 2 1012 0 0 24 78
1988242N12215 1988 65 WP MM ULEKI 1988-09-16 00:00:00 TS 40.0000 168.000 1012 tokyo main 1472 1472 _O____________ 40.0000 168.000 2 1012 0 0 0 23 77
1988242N12215 1988 65 WP MM ULEKI 1988-09-16 03:00:00 TS 40.2494 169.363 main 1526 1518 _P____________ 40.2494 169.363 2 1010 0 0 20 75
1988242N12215 1988 65 WP MM ULEKI 1988-09-16 06:00:00 ET 40.5000 170.500 1008 tokyo main 1561 1561 _O____________ 40.5000 170.500 6 1008 0 0 0 15 69
1988242N12215 1988 65 WP MM ULEKI 1988-09-16 09:00:00 ET 40.7823 171.213 main 1569 1569 _P____________ 40.7823 171.213 6 1008 0 0 12 66
1988242N12215 1988 65 WP MM ULEKI 1988-09-16 12:00:00 ET 41.0000 172.000 1008 tokyo main 1591 1591 _O____________ 41.0000 172.000 6 1008 0 0 0 17 81
1988242N12215 1988 65 WP MM ULEKI 1988-09-16 15:00:00 ET 41.0391 173.389 main 1664 1664 _P____________ 41.0391 173.389 6 1008 0 0 23 90
1988242N12215 1988 65 WP MM ULEKI 1988-09-16 18:00:00 ET 41.0000 175.000 1008 tokyo main 1744 1715 _O____________ 41.0000 175.000 6 1008 0 0 0 24 91
1988242N12215 1988 65 WP MM ULEKI 1988-09-16 21:00:00 ET 40.9892 176.536 main 1715 1650 _P____________ 40.9892 176.536 6 1008 0 0 23 90
1988242N12215 1988 65 WP MM ULEKI 1988-09-17 00:00:00 ET 41.0000 178.000 1008 tokyo main 1645 _O____________ 41.0000 178.000 6 1008 0 0 0 22 89

IBTrACS Databaseについて

本データベースは、米国NOAAが公開する1842年以降の世界の熱帯低気圧のベストトラックデータアーカイブInternational Best Track Archive for Climate Stewardship (IBTrACS)を、ウェブで閲覧しやすい形式に変換したものです。

最終更新日:2021-10-25